sensor_id;sensor_type;location;lat;lon;timestamp;pressure;altitude;pressure_sealevel;temperature;humidity
3844;BME280;1937;51.444;6.484;2022-08-11T00:00:01;68785.50;;;21.77;56.12
3844;BME280;1937;51.444;6.484;2022-08-11T00:02:34;68764.28;;;21.79;56.85
3844;BME280;1937;51.444;6.484;2022-08-11T00:05:07;68735.31;;;21.70;57.03
3844;BME280;1937;51.444;6.484;2022-08-11T00:07:42;68759.50;;;21.70;56.70
3844;BME280;1937;51.444;6.484;2022-08-11T00:10:11;68727.06;;;21.58;57.96
3844;BME280;1937;51.444;6.484;2022-08-11T00:12:39;68718.03;;;21.57;57.74
3844;BME280;1937;51.444;6.484;2022-08-11T00:15:10;68719.78;;;21.58;57.36
3844;BME280;1937;51.444;6.484;2022-08-11T00:17:40;68731.88;;;21.46;58.40
3844;BME280;1937;51.444;6.484;2022-08-11T00:20:13;68734.56;;;21.51;57.71
3844;BME280;1937;51.444;6.484;2022-08-11T00:22:44;68711.50;;;21.47;57.65
3844;BME280;1937;51.444;6.484;2022-08-11T00:25:15;68659.56;;;21.34;57.86
3844;BME280;1937;51.444;6.484;2022-08-11T00:27:45;68663.06;;;21.32;58.00
3844;BME280;1937;51.444;6.484;2022-08-11T00:30:15;68658.94;;;21.29;58.70
3844;BME280;1937;51.444;6.484;2022-08-11T00:32:55;68623.03;;;21.18;58.89
3844;BME280;1937;51.444;6.484;2022-08-11T00:35:30;68641.63;;;21.16;59.16
3844;BME280;1937;51.444;6.484;2022-08-11T00:38:00;68615.66;;;21.09;59.20
3844;BME280;1937;51.444;6.484;2022-08-11T00:40:36;68636.94;;;21.12;59.11
3844;BME280;1937;51.444;6.484;2022-08-11T00:43:16;68658.78;;;21.15;58.48
3844;BME280;1937;51.444;6.484;2022-08-11T00:48:59;68598.69;;;20.99;59.84
3844;BME280;1937;51.444;6.484;2022-08-11T00:51:53;68598.06;;;20.94;60.31
3844;BME280;1937;51.444;6.484;2022-08-11T00:54:35;68609.66;;;20.91;60.82
3844;BME280;1937;51.444;6.484;2022-08-11T00:57:36;68600.09;;;20.94;59.85
3844;BME280;1937;51.444;6.484;2022-08-11T01:00:15;68562.97;;;20.73;60.22
3844;BME280;1937;51.444;6.484;2022-08-11T01:03:15;68477.75;;;20.40;60.76
3844;BME280;1937;51.444;6.484;2022-08-11T01:06:10;68440.28;;;20.12;62.00
3844;BME280;1937;51.444;6.484;2022-08-11T01:12:18;68401.50;;;19.65;64.82
3844;BME280;1937;51.444;6.484;2022-08-11T01:15:13;68316.22;;;19.43;65.86
3844;BME280;1937;51.444;6.484;2022-08-11T01:18:15;68313.16;;;19.27;66.17
3844;BME280;1937;51.444;6.484;2022-08-11T01:21:08;68340.84;;;19.40;65.93
3844;BME280;1937;51.444;6.484;2022-08-11T01:24:13;68325.06;;;19.26;66.43
3844;BME280;1937;51.444;6.484;2022-08-11T01:33:19;68247.44;;;18.77;68.84
3844;BME280;1937;51.444;6.484;2022-08-11T01:39:37;68273.16;;;18.70;69.15
3844;BME280;1937;51.444;6.484;2022-08-11T01:42:53;68208.91;;;18.53;69.96
3844;BME280;1937;51.444;6.484;2022-08-11T01:46:00;68171.56;;;18.25;71.40
3844;BME280;1937;51.444;6.484;2022-08-11T01:48:38;68201.81;;;18.37;71.06
3844;BME280;1937;51.444;6.484;2022-08-11T01:51:19;68143.38;;;18.16;71.98
3844;BME280;1937;51.444;6.484;2022-08-11T01:53:56;68188.31;;;18.21;71.93
3844;BME280;1937;51.444;6.484;2022-08-11T01:56:41;68207.91;;;18.40;71.88
3844;BME280;1937;51.444;6.484;2022-08-11T01:59:18;68282.84;;;18.56;71.04
3844;BME280;1937;51.444;6.484;2022-08-11T02:02:09;68257.41;;;18.61;69.92
3844;BME280;1937;51.444;6.484;2022-08-11T02:04:49;68251.28;;;18.58;69.89
3844;BME280;1937;51.444;6.484;2022-08-11T02:07:32;68292.63;;;18.75;69.10
3844;BME280;1937;51.444;6.484;2022-08-11T02:10:13;68315.97;;;18.91;68.84
3844;BME280;1937;51.444;6.484;2022-08-11T02:13:12;68344.19;;;19.00;68.20
3844;BME280;1937;51.444;6.484;2022-08-11T02:15:49;68370.09;;;19.06;67.64
3844;BME280;1937;51.444;6.484;2022-08-11T02:18:22;68304.38;;;18.90;68.61
3844;BME280;1937;51.444;6.484;2022-08-11T02:21:18;68358.38;;;18.96;68.35
3844;BME280;1937;51.444;6.484;2022-08-11T02:24:13;68292.63;;;18.75;68.72
3844;BME280;1937;51.444;6.484;2022-08-11T02:26:52;68283.16;;;18.83;68.32
3844;BME280;1937;51.444;6.484;2022-08-11T02:29:33;68289.47;;;18.79;68.98
3844;BME280;1937;51.444;6.484;2022-08-11T02:32:10;68319.13;;;18.87;68.53
3844;BME280;1937;51.444;6.484;2022-08-11T02:35:03;68341.25;;;18.97;68.05
3844;BME280;1937;51.444;6.484;2022-08-11T02:37:41;68352.63;;;19.00;67.74
3844;BME280;1937;51.444;6.484;2022-08-11T02:40:26;68369.28;;;19.12;67.56
3844;BME280;1937;51.444;6.484;2022-08-11T02:43:04;68361.34;;;19.03;68.01
3844;BME280;1937;51.444;6.484;2022-08-11T02:45:41;68318.31;;;18.93;68.38
3844;BME280;1937;51.444;6.484;2022-08-11T02:48:24;68282.22;;;18.80;68.23
3844;BME280;1937;51.444;6.484;2022-08-11T02:51:17;68313.59;;;18.85;67.66
3844;BME280;1937;51.444;6.484;2022-08-11T02:53:52;68360.63;;;18.89;67.71
3844;BME280;1937;51.444;6.484;2022-08-11T02:56:31;68308.00;;;18.77;68.68
3844;BME280;1937;51.444;6.484;2022-08-11T02:59:12;68306.50;;;18.74;68.46
3844;BME280;1937;51.444;6.484;2022-08-11T03:02:05;68289.38;;;18.70;68.73
3844;BME280;1937;51.444;6.484;2022-08-11T03:04:45;68314.41;;;18.78;68.80
3844;BME280;1937;51.444;6.484;2022-08-11T03:07:24;68314.56;;;18.67;68.52
3844;BME280;1937;51.444;6.484;2022-08-11T03:10:02;68308.06;;;18.82;67.87
3844;BME280;1937;51.444;6.484;2022-08-11T03:12:39;68335.53;;;18.76;68.01
3844;BME280;1937;51.444;6.484;2022-08-11T03:15:31;68318.50;;;18.82;67.83
3844;BME280;1937;51.444;6.484;2022-08-11T03:18:25;68264.06;;;18.60;69.00
3844;BME280;1937;51.444;6.484;2022-08-11T03:21:01;68324.34;;;18.62;68.97
3844;BME280;1937;51.444;6.484;2022-08-11T03:23:38;68324.09;;;18.64;69.27
3844;BME280;1937;51.444;6.484;2022-08-11T03:26:21;68339.78;;;18.69;68.72
3844;BME280;1937;51.444;6.484;2022-08-11T03:28:58;68267.72;;;18.52;69.17
3844;BME280;1937;51.444;6.484;2022-08-11T03:31:33;68287.34;;;18.46;69.51
3844;BME280;1937;51.444;6.484;2022-08-11T03:34:05;68265.59;;;18.43;69.76
3844;BME280;1937;51.444;6.484;2022-08-11T03:40:06;68190.78;;;18.08;71.35
3844;BME280;1937;51.444;6.484;2022-08-11T03:42:45;68220.34;;;18.11;71.32
3844;BME280;1937;51.444;6.484;2022-08-11T03:45:23;68249.31;;;18.13;71.44
3844;BME280;1937;51.444;6.484;2022-08-11T03:48:02;68229.78;;;18.03;71.89
3844;BME280;1937;51.444;6.484;2022-08-11T03:50:51;68210.13;;;18.04;71.67
3844;BME280;1937;51.444;6.484;2022-08-11T03:53:31;68215.91;;;18.05;72.03
3844;BME280;1937;51.444;6.484;2022-08-11T03:56:18;68214.00;;;17.89;72.62
3844;BME280;1937;51.444;6.484;2022-08-11T03:59:15;68115.84;;;17.58;73.59
3844;BME280;1937;51.444;6.484;2022-08-11T04:02:12;68130.53;;;17.55;74.18
3844;BME280;1937;51.444;6.484;2022-08-11T04:08:27;68088.84;;;17.26;75.23
3844;BME280;1937;51.444;6.484;2022-08-11T04:14:11;68109.53;;;17.37;75.40
3844;BME280;1937;51.444;6.484;2022-08-11T04:17:21;68113.88;;;17.39;75.19
3844;BME280;1937;51.444;6.484;2022-08-11T04:20:27;68112.06;;;17.33;75.83
3844;BME280;1937;51.444;6.484;2022-08-11T04:23:19;68139.53;;;17.32;76.22
3844;BME280;1937;51.444;6.484;2022-08-11T04:26:28;68140.63;;;17.28;76.22
3844;BME280;1937;51.444;6.484;2022-08-11T04:29:13;68145.59;;;17.30;76.22
3844;BME280;1937;51.444;6.484;2022-08-11T04:31:59;68090.72;;;17.12;77.44
3844;BME280;1937;51.444;6.484;2022-08-11T04:34:50;68160.03;;;17.29;76.93
3844;BME280;1937;51.444;6.484;2022-08-11T04:38:04;68146.44;;;17.29;77.12
3844;BME280;1937;51.444;6.484;2022-08-11T04:41:19;68145.47;;;17.21;77.58
3844;BME280;1937;51.444;6.484;2022-08-11T04:47:18;68157.69;;;17.27;77.11
3844;BME280;1937;51.444;6.484;2022-08-11T04:50:21;68175.84;;;17.23;77.80
3844;BME280;1937;51.444;6.484;2022-08-11T04:53:21;68159.97;;;17.25;77.96
3844;BME280;1937;51.444;6.484;2022-08-11T04:56:17;68154.38;;;17.17;78.66
3844;BME280;1937;51.444;6.484;2022-08-11T04:59:39;68170.22;;;17.36;77.90
3844;BME280;1937;51.444;6.484;2022-08-11T05:05:28;68224.31;;;17.35;78.80
3844;BME280;1937;51.444;6.484;2022-08-11T05:08:35;68241.09;;;17.36;78.92
3844;BME280;1937;51.444;6.484;2022-08-11T05:11:29;68302.66;;;17.53;78.77
3844;BME280;1937;51.444;6.484;2022-08-11T05:14:26;68281.03;;;17.59;78.80
3844;BME280;1937;51.444;6.484;2022-08-11T05:17:21;68287.50;;;17.65;79.00
3844;BME280;1937;51.444;6.484;2022-08-11T05:23:46;68400.53;;;17.97;78.30
3844;BME280;1937;51.444;6.484;2022-08-11T05:26:42;68416.63;;;18.09;78.39
3844;BME280;1937;51.444;6.484;2022-08-11T05:29:38;68477.47;;;18.32;77.88
3844;BME280;1937;51.444;6.484;2022-08-11T05:32:27;68472.41;;;18.41;78.19
3844;BME280;1937;51.444;6.484;2022-08-11T05:35:17;68533.84;;;18.61;77.55
3844;BME280;1937;51.444;6.484;2022-08-11T05:37:51;68573.91;;;18.84;77.46
3844;BME280;1937;51.444;6.484;2022-08-11T05:40:39;68645.03;;;18.89;78.63
3844;BME280;1937;51.444;6.484;2022-08-11T05:43:33;68605.88;;;18.89;76.57
3844;BME280;1937;51.444;6.484;2022-08-11T05:46:25;68627.69;;;19.12;74.01
3844;BME280;1937;51.444;6.484;2022-08-11T05:49:12;68669.22;;;19.35;72.08
3844;BME280;1937;51.444;6.484;2022-08-11T05:51:58;68695.72;;;19.57;71.42
3844;BME280;1937;51.444;6.484;2022-08-11T05:54:47;68679.38;;;19.52;72.36
3844;BME280;1937;51.444;6.484;2022-08-11T05:57:35;68727.47;;;19.65;72.58
3844;BME280;1937;51.444;6.484;2022-08-11T06:00:08;68813.94;;;19.98;71.35
3844;BME280;1937;51.444;6.484;2022-08-11T06:02:40;68770.88;;;19.93;70.91
3844;BME280;1937;51.444;6.484;2022-08-11T06:05:10;68833.03;;;20.13;69.44
3844;BME280;1937;51.444;6.484;2022-08-11T06:07:40;68896.34;;;20.29;68.97
3844;BME280;1937;51.444;6.484;2022-08-11T06:10:10;68870.44;;;20.27;69.06
3844;BME280;1937;51.444;6.484;2022-08-11T06:12:40;68897.72;;;20.59;67.76
3844;BME280;1937;51.444;6.484;2022-08-11T06:15:11;68983.47;;;20.74;67.73
3844;BME280;1937;51.444;6.484;2022-08-11T06:17:45;69008.56;;;20.98;67.46
3844;BME280;1937;51.444;6.484;2022-08-11T06:20:15;69049.38;;;21.17;65.83
3844;BME280;1937;51.444;6.484;2022-08-11T06:22:49;69123.38;;;21.38;65.20
3844;BME280;1937;51.444;6.484;2022-08-11T06:25:22;69045.19;;;21.30;64.90
3844;BME280;1937;51.444;6.484;2022-08-11T06:27:58;69139.78;;;21.63;63.67
3844;BME280;1937;51.444;6.484;2022-08-11T06:30:36;69173.44;;;21.72;63.14
3844;BME280;1937;51.444;6.484;2022-08-11T06:33:10;69130.31;;;21.71;63.01
3844;BME280;1937;51.444;6.484;2022-08-11T06:35:56;69165.28;;;21.90;62.49
3844;BME280;1937;51.444;6.484;2022-08-11T06:38:37;69219.44;;;22.02;60.88
3844;BME280;1937;51.444;6.484;2022-08-11T06:41:17;69221.66;;;22.16;60.54
3844;BME280;1937;51.444;6.484;2022-08-11T06:44:04;69233.50;;;22.26;59.99
3844;BME280;1937;51.444;6.484;2022-08-11T06:46:37;69241.13;;;22.28;60.75
3844;BME280;1937;51.444;6.484;2022-08-11T06:49:07;69214.97;;;22.32;59.92
3844;BME280;1937;51.444;6.484;2022-08-11T06:52:00;69303.31;;;22.50;60.01
3844;BME280;1937;51.444;6.484;2022-08-11T06:54:32;69296.88;;;22.49;60.71
3844;BME280;1937;51.444;6.484;2022-08-11T06:57:03;69380.19;;;22.75;60.17
3844;BME280;1937;51.444;6.484;2022-08-11T06:59:51;69366.88;;;22.81;59.96
3844;BME280;1937;51.444;6.484;2022-08-11T07:02:47;69467.00;;;23.15;57.74
3844;BME280;1937;51.444;6.484;2022-08-11T07:05:22;69470.03;;;23.22;57.89
3844;BME280;1937;51.444;6.484;2022-08-11T07:08:19;69485.72;;;23.34;56.83
3844;BME280;1937;51.444;6.484;2022-08-11T07:14:54;69629.56;;;23.87;56.03
3844;BME280;1937;51.444;6.484;2022-08-11T07:17:45;69631.72;;;23.91;55.61
3844;BME280;1937;51.444;6.484;2022-08-11T07:20:36;69740.91;;;24.28;53.95
3844;BME280;1937;51.444;6.484;2022-08-11T07:23:23;69688.00;;;24.30;52.11
3844;BME280;1937;51.444;6.484;2022-08-11T07:26:10;69704.66;;;24.44;51.02
3844;BME280;1937;51.444;6.484;2022-08-11T07:28:57;69781.69;;;24.65;49.51
3844;BME280;1937;51.444;6.484;2022-08-11T07:31:34;69828.34;;;24.86;49.72
3844;BME280;1937;51.444;6.484;2022-08-11T07:34:14;69803.19;;;24.87;48.37
3844;BME280;1937;51.444;6.484;2022-08-11T07:36:48;69887.66;;;25.23;48.51
3844;BME280;1937;51.444;6.484;2022-08-11T07:39:21;69982.03;;;25.54;47.65
3844;BME280;1937;51.444;6.484;2022-08-11T07:41:51;70165.97;;;26.14;47.66
3844;BME280;1937;51.444;6.484;2022-08-11T07:44:20;70280.22;;;26.73;44.17
3844;BME280;1937;51.444;6.484;2022-08-11T07:46:54;70428.78;;;27.22;43.56
3844;BME280;1937;51.444;6.484;2022-08-11T07:49:45;70579.56;;;27.83;41.07
3844;BME280;1937;51.444;6.484;2022-08-11T07:52:35;70663.97;;;28.18;40.47
3844;BME280;1937;51.444;6.484;2022-08-11T07:55:12;70687.19;;;28.29;40.22
3844;BME280;1937;51.444;6.484;2022-08-11T07:57:42;70782.56;;;28.51;39.83
3844;BME280;1937;51.444;6.484;2022-08-11T08:00:28;70632.63;;;28.25;40.69
3844;BME280;1937;51.444;6.484;2022-08-11T08:03:21;70827.56;;;28.84;40.34
3844;BME280;1937;51.444;6.484;2022-08-11T08:06:09;70915.09;;;28.96;39.25
3844;BME280;1937;51.444;6.484;2022-08-11T08:08:56;71082.66;;;29.43;40.68
3844;BME280;1937;51.444;6.484;2022-08-11T08:11:43;71369.22;;;30.25;37.12
3844;BME280;1937;51.444;6.484;2022-08-11T08:14:30;71315.19;;;30.15;38.52
3844;BME280;1937;51.444;6.484;2022-08-11T08:17:17;71584.75;;;30.87;35.81
3844;BME280;1937;51.444;6.484;2022-08-11T08:20:03;71425.50;;;30.61;35.79
3844;BME280;1937;51.444;6.484;2022-08-11T08:22:35;71392.34;;;30.48;35.67
3844;BME280;1937;51.444;6.484;2022-08-11T08:25:06;71182.63;;;29.95;36.63
3844;BME280;1937;51.444;6.484;2022-08-11T08:27:35;71084.19;;;29.80;35.52
3844;BME280;1937;51.444;6.484;2022-08-11T08:30:08;71475.38;;;30.78;35.01
3844;BME280;1937;51.444;6.484;2022-08-11T08:32:54;71322.81;;;30.46;34.98
3844;BME280;1937;51.444;6.484;2022-08-11T08:35:24;71454.31;;;30.76;35.19
3844;BME280;1937;51.444;6.484;2022-08-11T08:37:54;71727.00;;;31.52;33.71
3844;BME280;1937;51.444;6.484;2022-08-11T08:40:23;71778.41;;;31.57;33.97
3844;BME280;1937;51.444;6.484;2022-08-11T08:42:54;71905.19;;;31.85;34.89
3844;BME280;1937;51.444;6.484;2022-08-11T08:45:24;71971.44;;;32.00;33.72
3844;BME280;1937;51.444;6.484;2022-08-11T08:47:57;71966.09;;;32.00;34.53
3844;BME280;1937;51.444;6.484;2022-08-11T08:50:29;71927.13;;;31.86;34.12
3844;BME280;1937;51.444;6.484;2022-08-11T08:53:15;71909.69;;;31.87;34.19
3844;BME280;1937;51.444;6.484;2022-08-11T08:55:47;71885.06;;;31.86;33.35
3844;BME280;1937;51.444;6.484;2022-08-11T08:58:20;71970.38;;;32.04;33.80
3844;BME280;1937;51.444;6.484;2022-08-11T09:00:52;72143.97;;;32.44;34.91
3844;BME280;1937;51.444;6.484;2022-08-11T09:03:22;72300.41;;;32.89;32.35
3844;BME280;1937;51.444;6.484;2022-08-11T09:05:54;72067.41;;;32.42;32.74
3844;BME280;1937;51.444;6.484;2022-08-11T09:08:24;72147.94;;;32.38;33.03
3844;BME280;1937;51.444;6.484;2022-08-11T09:10:56;72251.34;;;32.69;32.34
3844;BME280;1937;51.444;6.484;2022-08-11T09:13:43;72337.16;;;32.96;32.56
3844;BME280;1937;51.444;6.484;2022-08-11T09:16:14;72263.84;;;32.88;32.46
3844;BME280;1937;51.444;6.484;2022-08-11T09:18:43;72228.44;;;32.76;33.46
3844;BME280;1937;51.444;6.484;2022-08-11T09:21:13;72036.47;;;32.21;32.85
3844;BME280;1937;51.444;6.484;2022-08-11T09:23:46;72403.38;;;33.13;32.26
3844;BME280;1937;51.444;6.484;2022-08-11T09:26:33;72764.63;;;33.97;31.48
3844;BME280;1937;51.444;6.484;2022-08-11T09:29:27;72908.63;;;34.27;31.14
3844;BME280;1937;51.444;6.484;2022-08-11T09:31:58;72926.31;;;34.24;32.18
3844;BME280;1937;51.444;6.484;2022-08-11T09:34:26;72801.63;;;34.01;30.62
3844;BME280;1937;51.444;6.484;2022-08-11T09:36:56;72679.53;;;33.80;32.08
3844;BME280;1937;51.444;6.484;2022-08-11T09:39:44;72702.72;;;33.88;31.29
3844;BME280;1937;51.444;6.484;2022-08-11T09:42:31;72804.69;;;34.10;31.72
3844;BME280;1937;51.444;6.484;2022-08-11T09:45:14;72575.28;;;33.66;29.81
3844;BME280;1937;51.444;6.484;2022-08-11T09:47:45;72184.81;;;32.84;31.76
3844;BME280;1937;51.444;6.484;2022-08-11T09:50:16;72242.34;;;33.01;30.95
3844;BME280;1937;51.444;6.484;2022-08-11T09:52:46;72300.59;;;33.12;30.69
3844;BME280;1937;51.444;6.484;2022-08-11T09:55:19;72333.16;;;33.25;29.90
3844;BME280;1937;51.444;6.484;2022-08-11T09:57:48;72366.22;;;33.28;30.03
3844;BME280;1937;51.444;6.484;2022-08-11T10:00:35;72489.25;;;33.46;30.42
3844;BME280;1937;51.444;6.484;2022-08-11T10:03:09;72563.47;;;33.77;29.46
3844;BME280;1937;51.444;6.484;2022-08-11T10:05:46;72465.13;;;33.53;30.16
3844;BME280;1937;51.444;6.484;2022-08-11T10:08:33;72553.00;;;33.75;29.62
3844;BME280;1937;51.444;6.484;2022-08-11T10:11:08;72526.91;;;33.68;29.32
3844;BME280;1937;51.444;6.484;2022-08-11T10:13:40;72556.91;;;33.76;29.16
3844;BME280;1937;51.444;6.484;2022-08-11T10:16:27;72487.91;;;33.58;29.37
3844;BME280;1937;51.444;6.484;2022-08-11T10:18:57;72406.13;;;33.48;29.51
3844;BME280;1937;51.444;6.484;2022-08-11T10:21:35;72602.94;;;33.83;29.29
3844;BME280;1937;51.444;6.484;2022-08-11T10:24:06;72355.47;;;33.35;28.65
3844;BME280;1937;51.444;6.484;2022-08-11T10:26:56;72624.28;;;33.89;28.94
3844;BME280;1937;51.444;6.484;2022-08-11T10:29:27;72375.41;;;33.36;30.73
3844;BME280;1937;51.444;6.484;2022-08-11T10:32:17;72892.63;;;34.51;27.56
3844;BME280;1937;51.444;6.484;2022-08-11T10:35:04;72869.13;;;34.52;27.36
3844;BME280;1937;51.444;6.484;2022-08-11T10:37:36;72446.69;;;33.68;27.88
3844;BME280;1937;51.444;6.484;2022-08-11T10:40:08;72419.59;;;33.59;28.96
3844;BME280;1937;51.444;6.484;2022-08-11T10:42:40;72398.34;;;33.46;27.71
3844;BME280;1937;51.444;6.484;2022-08-11T10:45:35;72482.00;;;33.76;28.43
3844;BME280;1937;51.444;6.484;2022-08-11T10:48:23;72616.38;;;34.00;27.73
3844;BME280;1937;51.444;6.484;2022-08-11T10:50:52;72581.53;;;33.83;29.29
3844;BME280;1937;51.444;6.484;2022-08-11T10:53:41;72938.28;;;34.69;27.14
3844;BME280;1937;51.444;6.484;2022-08-11T10:56:29;73052.00;;;34.90;27.61
3844;BME280;1937;51.444;6.484;2022-08-11T10:59:17;72820.13;;;34.47;27.24
3844;BME280;1937;51.444;6.484;2022-08-11T11:01:47;72573.56;;;34.00;26.98
3844;BME280;1937;51.444;6.484;2022-08-11T11:04:17;72603.97;;;34.10;27.10
3844;BME280;1937;51.444;6.484;2022-08-11T11:06:53;72805.91;;;34.48;27.81
3844;BME280;1937;51.444;6.484;2022-08-11T11:09:31;73113.78;;;35.01;28.88
3844;BME280;1937;51.444;6.484;2022-08-11T11:12:04;73072.97;;;35.01;26.17
3844;BME280;1937;51.444;6.484;2022-08-11T11:14:54;72754.03;;;34.45;26.97
3844;BME280;1937;51.444;6.484;2022-08-11T11:17:42;72486.25;;;33.86;27.21
3844;BME280;1937;51.444;6.484;2022-08-11T11:20:27;72342.97;;;33.51;28.28
3844;BME280;1937;51.444;6.484;2022-08-11T11:23:00;72421.19;;;33.69;27.73
3844;BME280;1937;51.444;6.484;2022-08-11T11:25:37;72635.63;;;34.14;26.38
3844;BME280;1937;51.444;6.484;2022-08-11T11:28:42;73236.47;;;35.34;27.82
3844;BME280;1937;51.444;6.484;2022-08-11T11:31:23;73170.88;;;35.19;26.77
3844;BME280;1937;51.444;6.484;2022-08-11T11:34:08;72918.69;;;34.77;26.99
3844;BME280;1937;51.444;6.484;2022-08-11T11:36:44;72347.88;;;33.55;27.96
3844;BME280;1937;51.444;6.484;2022-08-11T11:39:14;72459.94;;;33.82;27.84
3844;BME280;1937;51.444;6.484;2022-08-11T11:41:43;72416.88;;;33.66;29.65
3844;BME280;1937;51.444;6.484;2022-08-11T11:44:13;72622.47;;;34.12;27.20
3844;BME280;1937;51.444;6.484;2022-08-11T11:46:45;72338.09;;;33.65;27.45
3844;BME280;1937;51.444;6.484;2022-08-11T11:49:15;72469.69;;;33.72;27.77
3844;BME280;1937;51.444;6.484;2022-08-11T11:51:46;72512.88;;;33.99;27.74
3844;BME280;1937;51.444;6.484;2022-08-11T11:54:17;72497.72;;;33.91;26.78
3844;BME280;1937;51.444;6.484;2022-08-11T11:56:47;72728.13;;;34.37;28.33
3844;BME280;1937;51.444;6.484;2022-08-11T11:59:21;72630.06;;;34.16;27.43
3844;BME280;1937;51.444;6.484;2022-08-11T12:02:11;72721.72;;;34.41;27.93
3844;BME280;1937;51.444;6.484;2022-08-11T12:04:43;72646.88;;;34.28;27.87
3844;BME280;1937;51.444;6.484;2022-08-11T12:07:14;72617.50;;;34.15;27.93
3844;BME280;1937;51.444;6.484;2022-08-11T12:10:02;72919.13;;;34.73;26.86
3844;BME280;1937;51.444;6.484;2022-08-11T12:12:31;72924.78;;;34.89;26.15
3844;BME280;1937;51.444;6.484;2022-08-11T12:15:18;72522.38;;;34.16;26.31
3844;BME280;1937;51.444;6.484;2022-08-11T12:17:48;72754.19;;;34.50;27.14
3844;BME280;1937;51.444;6.484;2022-08-11T12:20:17;72702.81;;;34.36;26.61
3844;BME280;1937;51.444;6.484;2022-08-11T12:22:48;72797.53;;;34.70;26.58
3844;BME280;1937;51.444;6.484;2022-08-11T12:25:35;72937.97;;;34.91;26.00
3844;BME280;1937;51.444;6.484;2022-08-11T12:28:22;72857.22;;;34.82;26.38
3844;BME280;1937;51.444;6.484;2022-08-11T12:30:52;73074.38;;;35.19;25.72
3844;BME280;1937;51.444;6.484;2022-08-11T12:33:23;72925.78;;;34.99;25.28
3844;BME280;1937;51.444;6.484;2022-08-11T12:35:55;72908.97;;;34.80;25.28
3844;BME280;1937;51.444;6.484;2022-08-11T12:38:25;72649.81;;;34.43;25.57
3844;BME280;1937;51.444;6.484;2022-08-11T12:40:55;73090.44;;;35.26;25.41
3844;BME280;1937;51.444;6.484;2022-08-11T12:43:44;73238.25;;;35.68;24.94
3844;BME280;1937;51.444;6.484;2022-08-11T12:46:32;73167.50;;;35.45;26.21
3844;BME280;1937;51.444;6.484;2022-08-11T12:49:11;73415.31;;;35.88;25.37
3844;BME280;1937;51.444;6.484;2022-08-11T12:52:00;73434.72;;;35.95;24.66
3844;BME280;1937;51.444;6.484;2022-08-11T12:54:33;73466.53;;;36.05;23.73
3844;BME280;1937;51.444;6.484;2022-08-11T12:57:05;73442.56;;;36.03;24.25
3844;BME280;1937;51.444;6.484;2022-08-11T12:59:51;72924.88;;;35.07;24.45
3844;BME280;1937;51.444;6.484;2022-08-11T13:02:41;73166.47;;;35.42;26.41
3844;BME280;1937;51.444;6.484;2022-08-11T13:05:29;73061.53;;;35.26;25.31
3844;BME280;1937;51.444;6.484;2022-08-11T13:08:01;72673.25;;;34.49;25.96
3844;BME280;1937;51.444;6.484;2022-08-11T13:10:32;73094.75;;;35.23;25.92
3844;BME280;1937;51.444;6.484;2022-08-11T13:13:20;73233.69;;;35.60;25.37
3844;BME280;1937;51.444;6.484;2022-08-11T13:15:49;73019.47;;;35.18;24.46
3844;BME280;1937;51.444;6.484;2022-08-11T13:18:20;73426.88;;;35.99;24.71
3844;BME280;1937;51.444;6.484;2022-08-11T13:20:52;73532.88;;;36.20;25.06
3844;BME280;1937;51.444;6.484;2022-08-11T13:23:23;73330.66;;;35.89;24.61
3844;BME280;1937;51.444;6.484;2022-08-11T13:25:54;73130.78;;;35.44;25.31
3844;BME280;1937;51.444;6.484;2022-08-11T13:28:23;73110.59;;;35.38;26.44
3844;BME280;1937;51.444;6.484;2022-08-11T13:30:52;73248.16;;;35.69;25.19
3844;BME280;1937;51.444;6.484;2022-08-11T13:33:43;73355.03;;;35.93;24.42
3844;BME280;1937;51.444;6.484;2022-08-11T13:36:15;72996.13;;;35.30;24.94
3844;BME280;1937;51.444;6.484;2022-08-11T13:38:45;73291.66;;;35.77;24.60
3844;BME280;1937;51.444;6.484;2022-08-11T13:41:16;73402.69;;;36.06;24.04
3844;BME280;1937;51.444;6.484;2022-08-11T13:44:02;73273.31;;;35.72;25.20
3844;BME280;1937;51.444;6.484;2022-08-11T13:46:33;73190.59;;;35.49;25.46
3844;BME280;1937;51.444;6.484;2022-08-11T13:49:04;72728.72;;;34.69;26.11
3844;BME280;1937;51.444;6.484;2022-08-11T13:51:35;72612.72;;;34.46;26.04
3844;BME280;1937;51.444;6.484;2022-08-11T13:54:07;72544.53;;;34.27;26.54
3844;BME280;1937;51.444;6.484;2022-08-11T13:56:37;72445.75;;;34.01;26.63
3844;BME280;1937;51.444;6.484;2022-08-11T13:59:08;72585.75;;;34.41;25.62
3844;BME280;1937;51.444;6.484;2022-08-11T14:01:40;72736.34;;;34.66;26.05
3844;BME280;1937;51.444;6.484;2022-08-11T14:04:11;72634.53;;;34.48;25.83
3844;BME280;1937;51.444;6.484;2022-08-11T14:06:47;72346.44;;;33.74;27.49
3844;BME280;1937;51.444;6.484;2022-08-11T14:09:22;72378.91;;;33.94;26.80
3844;BME280;1937;51.444;6.484;2022-08-11T14:11:55;72487.94;;;34.00;27.96
3844;BME280;1937;51.444;6.484;2022-08-11T14:14:45;72243.50;;;33.62;26.85
3844;BME280;1937;51.444;6.484;2022-08-11T14:17:16;72401.41;;;33.91;26.53
3844;BME280;1937;51.444;6.484;2022-08-11T14:19:50;72416.69;;;34.03;27.40
3844;BME280;1937;51.444;6.484;2022-08-11T14:22:21;72325.50;;;33.70;27.84
3844;BME280;1937;51.444;6.484;2022-08-11T14:24:50;72292.56;;;33.71;27.78
3844;BME280;1937;51.444;6.484;2022-08-11T14:27:19;72275.69;;;33.73;26.67
3844;BME280;1937;51.444;6.484;2022-08-11T14:29:53;72225.78;;;33.65;27.78
3844;BME280;1937;51.444;6.484;2022-08-11T14:32:22;72159.91;;;33.39;27.98
3844;BME280;1937;51.444;6.484;2022-08-11T14:34:52;72263.44;;;33.63;27.23
3844;BME280;1937;51.444;6.484;2022-08-11T14:37:24;72264.44;;;33.66;27.04
3844;BME280;1937;51.444;6.484;2022-08-11T14:39:57;72146.28;;;33.41;27.77
3844;BME280;1937;51.444;6.484;2022-08-11T14:42:27;72137.91;;;33.39;27.39
3844;BME280;1937;51.444;6.484;2022-08-11T14:45:25;72190.06;;;33.44;27.65
3844;BME280;1937;51.444;6.484;2022-08-11T14:48:13;72071.28;;;33.25;27.26
3844;BME280;1937;51.444;6.484;2022-08-11T14:50:43;72078.22;;;33.29;27.64
3844;BME280;1937;51.444;6.484;2022-08-11T14:53:13;72022.97;;;33.10;28.87
3844;BME280;1937;51.444;6.484;2022-08-11T14:55:43;71908.75;;;32.81;28.65
3844;BME280;1937;51.444;6.484;2022-08-11T14:58:30;71857.22;;;32.65;28.62
3844;BME280;1937;51.444;6.484;2022-08-11T15:01:01;71967.81;;;33.02;27.88
3844;BME280;1937;51.444;6.484;2022-08-11T15:03:50;71698.50;;;32.42;27.74
3844;BME280;1937;51.444;6.484;2022-08-11T15:06:19;71738.81;;;32.51;28.77
3844;BME280;1937;51.444;6.484;2022-08-11T15:08:49;71842.34;;;32.73;28.00
3844;BME280;1937;51.444;6.484;2022-08-11T15:11:27;71832.16;;;32.69;29.25